createdAt,value
2023-02-20T00:00:34.967Z,81.59
2023-02-20T00:03:01.582Z,81.93
2023-02-20T00:05:28.143Z,81.23
2023-02-20T00:07:54.736Z,82.34
2023-02-20T00:10:21.359Z,81.25
2023-02-20T00:12:51.476Z,81.86
2023-02-20T00:15:19.523Z,81.33
2023-02-20T00:17:49.403Z,80.71
2023-02-20T00:20:18.377Z,80.70
2023-02-20T00:22:45.045Z,81.26
2023-02-20T00:25:11.629Z,81.69
2023-02-20T00:27:38.187Z,81.55
2023-02-20T00:30:05.706Z,81.69
2023-02-20T00:32:32.253Z,81.56
2023-02-20T00:34:58.787Z,80.98
2023-02-20T00:37:25.313Z,80.52
2023-02-20T00:39:51.861Z,80.82
2023-02-20T00:42:18.518Z,81.14
2023-02-20T00:44:45.060Z,80.77
2023-02-20T00:47:11.649Z,80.40
2023-02-20T00:49:38.175Z,81.21
2023-02-20T00:52:04.721Z,81.62
2023-02-20T00:54:31.278Z,82.50
2023-02-20T00:56:57.812Z,82.25
2023-02-20T00:59:24.338Z,81.42
2023-02-20T01:01:50.967Z,81.24
2023-02-20T01:04:20.901Z,80.79
2023-02-20T01:06:47.533Z,81.08
2023-02-20T01:09:14.127Z,81.05
2023-02-20T01:11:44.918Z,80.78
2023-02-20T01:14:13.043Z,80.82
2023-02-20T01:16:51.538Z,81.10
2023-02-20T01:19:19.521Z,80.91
2023-02-20T01:21:46.231Z,80.58
2023-02-20T01:24:12.981Z,80.63
2023-02-20T01:26:41.821Z,81.24
2023-02-20T01:29:08.771Z,80.59
2023-02-20T01:31:35.459Z,81.11
2023-02-20T01:34:02.506Z,80.82
2023-02-20T01:36:29.147Z,81.19
2023-02-20T01:38:55.962Z,81.16
2023-02-20T01:41:24.631Z,81.31
2023-02-20T01:43:51.213Z,80.92
2023-02-20T01:46:26.775Z,81.10
2023-02-20T01:49:04.539Z,80.63
2023-02-20T01:51:39.798Z,81.59
2023-02-20T01:54:09.894Z,81.28
2023-02-20T01:56:36.855Z,81.58
2023-02-20T01:59:07.073Z,81.52
2023-02-20T02:01:34.479Z,81.75
2023-02-20T02:04:07.044Z,81.00
2023-02-20T02:06:37.785Z,81.76
2023-02-20T02:09:12.116Z,81.62
2023-02-20T02:11:39.310Z,81.78
2023-02-20T02:14:05.895Z,81.95
2023-02-20T02:16:52.115Z,82.31
2023-02-20T02:19:56.012Z,82.47
2023-02-20T02:22:52.768Z,83.37
2023-02-20T02:25:48.821Z,83.73
2023-02-20T02:28:17.920Z,83.18
2023-02-20T02:31:20.125Z,84.07
2023-02-20T02:33:46.675Z,83.79
2023-02-20T02:36:16.133Z,83.83
2023-02-20T02:38:48.691Z,83.84
2023-02-20T02:41:27.120Z,84.30
2023-02-20T02:44:12.471Z,84.26
2023-02-20T02:47:01.340Z,84.51
2023-02-20T02:49:43.173Z,83.36
2023-02-20T02:52:11.347Z,83.89
2023-02-20T02:54:37.907Z,83.75
2023-02-20T02:57:24.632Z,83.75
2023-02-20T02:59:57.949Z,83.12
2023-02-20T03:02:28.339Z,82.47
2023-02-20T03:04:55.987Z,83.19
2023-02-20T03:07:24.384Z,83.84
2023-02-20T03:10:00.840Z,82.18
2023-02-20T03:12:27.671Z,82.56
2023-02-20T03:15:16.844Z,82.02
2023-02-20T03:17:49.918Z,81.75
2023-02-20T03:20:21.017Z,81.79
2023-02-20T03:23:00.626Z,81.62
2023-02-20T03:25:40.494Z,81.23
2023-02-20T03:28:16.546Z,81.56
2023-02-20T03:30:53.804Z,80.50
2023-02-20T03:34:49.705Z,80.79
2023-02-20T03:37:40.278Z,81.00
2023-02-20T03:40:30.151Z,80.95
2023-02-20T03:43:19.466Z,80.74
2023-02-20T03:45:47.955Z,80.86
2023-02-20T03:48:46.224Z,81.43
2023-02-20T03:51:13.197Z,80.90
2023-02-20T03:53:41.234Z,80.92
2023-02-20T03:56:13.108Z,81.29
2023-02-20T03:58:45.124Z,81.49
2023-02-20T04:01:15.445Z,81.46
2023-02-20T04:03:47.005Z,81.04
2023-02-20T04:06:15.729Z,81.50
2023-02-20T04:08:45.323Z,81.16
2023-02-20T04:11:37.834Z,81.47
2023-02-20T04:14:05.561Z,81.26
2023-02-20T04:16:37.148Z,81.52
2023-02-20T04:19:04.798Z,81.73
2023-02-20T04:21:44.863Z,81.87
2023-02-20T04:24:16.936Z,82.29
2023-02-20T04:26:44.010Z,82.02
2023-02-20T04:29:10.867Z,82.66
2023-02-20T04:31:37.529Z,82.17
2023-02-20T04:34:04.066Z,82.00
2023-02-20T04:36:30.659Z,82.09
2023-02-20T04:38:57.301Z,81.76
2023-02-20T04:41:24.020Z,81.68
2023-02-20T04:44:10.454Z,81.24
2023-02-20T04:46:36.978Z,81.58
2023-02-20T04:49:03.524Z,81.47
2023-02-20T04:51:30.025Z,82.27
2023-02-20T04:53:57.413Z,81.86
2023-02-20T04:56:24.053Z,82.41
2023-02-20T04:58:51.001Z,81.31
2023-02-20T05:01:17.641Z,82.11
2023-02-20T05:03:44.312Z,81.47
2023-02-20T05:06:11.118Z,82.28
2023-02-20T05:08:37.837Z,81.93
2023-02-20T05:11:04.416Z,81.54
2023-02-20T05:13:31.249Z,81.87
2023-02-20T05:15:57.859Z,82.10
2023-02-20T05:18:29.021Z,81.57
2023-02-20T05:21:14.625Z,81.51
2023-02-20T05:23:41.155Z,81.02
2023-02-20T05:26:11.983Z,81.48
2023-02-20T05:28:39.820Z,80.47
2023-02-20T05:31:07.127Z,80.25
2023-02-20T05:33:33.730Z,79.42
2023-02-20T05:36:00.789Z,79.56
2023-02-20T05:38:27.504Z,78.52
2023-02-20T05:40:54.042Z,78.97
2023-02-20T05:43:20.581Z,79.17
2023-02-20T05:45:47.420Z,79.33
2023-02-20T05:48:14.927Z,80.05
2023-02-20T05:50:41.504Z,79.95
2023-02-20T05:53:08.100Z,79.18
2023-02-20T05:55:34.610Z,78.69
2023-02-20T05:58:01.177Z,78.79
2023-02-20T06:00:27.749Z,78.55
2023-02-20T06:02:54.259Z,78.39
2023-02-20T06:05:21.436Z,78.45
2023-02-20T06:07:47.990Z,77.85
2023-02-20T06:10:15.900Z,77.07
2023-02-20T06:12:42.451Z,77.73
2023-02-20T06:15:09.176Z,77.44
2023-02-20T06:17:35.816Z,77.73
2023-02-20T06:20:02.369Z,76.44
2023-02-20T06:22:28.973Z,77.13
2023-02-20T06:24:55.510Z,76.96
2023-02-20T06:27:22.011Z,76.74
2023-02-20T06:29:48.913Z,76.53
2023-02-20T06:32:17.012Z,76.52
2023-02-20T06:34:46.941Z,75.68
2023-02-20T06:37:13.682Z,75.32
2023-02-20T06:39:42.961Z,75.38
2023-02-20T06:42:09.478Z,74.80
2023-02-20T06:44:35.982Z,75.00
2023-02-20T06:47:02.537Z,74.57
2023-02-20T06:49:29.059Z,74.78
2023-02-20T06:51:55.546Z,74.79
2023-02-20T06:54:22.357Z,73.05
2023-02-20T06:56:48.879Z,73.41
2023-02-20T06:59:15.490Z,72.70
2023-02-20T07:01:43.580Z,73.90
2023-02-20T07:04:27.821Z,71.63
2023-02-20T07:06:55.563Z,71.35
2023-02-20T07:09:22.805Z,70.69
2023-02-20T07:11:50.601Z,70.74
2023-02-20T07:14:17.370Z,69.20
2023-02-20T07:16:43.947Z,69.98
2023-02-20T07:19:10.523Z,69.88
2023-02-20T07:21:37.132Z,69.11
2023-02-20T07:24:03.904Z,68.83
2023-02-20T07:26:31.162Z,68.61
2023-02-20T07:28:58.801Z,67.64
2023-02-20T07:31:25.472Z,67.33
2023-02-20T07:33:52.115Z,66.95
2023-02-20T07:36:19.478Z,66.44
2023-02-20T07:38:57.596Z,66.41
2023-02-20T07:41:25.598Z,65.09
2023-02-20T07:43:52.363Z,64.42
2023-02-20T07:46:20.404Z,64.70
2023-02-20T07:48:47.448Z,64.36
2023-02-20T07:51:14.658Z,64.27
2023-02-20T07:53:47.057Z,63.30
2023-02-20T07:56:13.817Z,62.91
2023-02-20T07:58:40.549Z,62.46
2023-02-20T08:01:07.195Z,62.81
2023-02-20T08:03:33.674Z,62.01
2023-02-20T08:06:00.323Z,61.61
2023-02-20T08:08:26.861Z,62.05
2023-02-20T08:11:03.568Z,61.73
2023-02-20T08:13:34.696Z,62.01
2023-02-20T08:16:01.211Z,61.98
2023-02-20T08:18:27.743Z,61.78
2023-02-20T08:20:54.264Z,61.29
2023-02-20T08:23:22.957Z,60.73
2023-02-20T08:25:49.791Z,61.14
2023-02-20T08:28:16.440Z,62.11
2023-02-20T08:30:43.031Z,61.36
2023-02-20T08:33:09.607Z,60.64
2023-02-20T08:35:36.398Z,61.57
2023-02-20T08:38:05.633Z,60.88
2023-02-20T08:40:32.636Z,60.74
2023-02-20T08:42:59.945Z,60.74
2023-02-20T08:45:29.114Z,60.77
2023-02-20T08:48:02.263Z,60.83
2023-02-20T08:50:28.921Z,61.16
2023-02-20T08:52:55.581Z,61.00
2023-02-20T08:55:22.193Z,60.86
2023-02-20T08:57:48.767Z,60.45
2023-02-20T09:00:17.677Z,60.13
2023-02-20T09:02:46.444Z,59.90
2023-02-20T09:05:13.102Z,59.27
2023-02-20T09:07:39.684Z,59.07
2023-02-20T09:10:06.705Z,58.34
2023-02-20T09:12:33.477Z,59.18
2023-02-20T09:15:00.716Z,59.06
2023-02-20T09:17:28.327Z,58.15
2023-02-20T09:19:55.093Z,58.62
2023-02-20T09:22:25.441Z,58.49
2023-02-20T09:24:53.741Z,59.14
2023-02-20T09:27:20.935Z,59.23
2023-02-20T09:29:47.785Z,58.80
2023-02-20T09:32:15.011Z,58.40
2023-02-20T09:34:41.615Z,57.89
2023-02-20T09:37:08.689Z,59.02
2023-02-20T09:39:35.408Z,58.53
2023-02-20T09:42:26.416Z,58.21
2023-02-20T09:45:25.405Z,58.86
2023-02-20T09:48:01.120Z,58.06
2023-02-20T09:50:36.702Z,57.47
2023-02-20T09:53:33.142Z,58.07
2023-02-20T09:56:01.726Z,58.05
2023-02-20T09:58:55.022Z,57.56
2023-02-20T10:01:23.911Z,57.88
2023-02-20T10:03:57.883Z,57.91
2023-02-20T10:06:32.209Z,58.11
2023-02-20T10:08:59.389Z,57.51
2023-02-20T10:11:47.686Z,56.97
2023-02-20T10:14:27.103Z,55.84
2023-02-20T10:16:53.719Z,55.79
2023-02-20T10:19:28.387Z,56.16
2023-02-20T10:22:13.703Z,56.22
2023-02-20T10:25:02.116Z,55.93
2023-02-20T10:27:47.457Z,56.59
2023-02-20T10:30:20.397Z,55.79
2023-02-20T10:32:56.844Z,55.22
2023-02-20T10:35:39.580Z,55.21
2023-02-20T10:38:11.324Z,54.79
2023-02-20T10:40:41.946Z,54.59
2023-02-20T10:43:24.186Z,54.89
2023-02-20T10:46:16.381Z,55.24
2023-02-20T10:48:45.368Z,54.96
2023-02-20T10:51:30.022Z,54.34
2023-02-20T10:54:12.255Z,54.46
2023-02-20T10:56:48.530Z,54.40
2023-02-20T10:59:27.169Z,53.89
2023-02-20T11:01:56.868Z,54.18
2023-02-20T11:04:36.581Z,54.03
2023-02-20T11:07:12.121Z,53.66
2023-02-20T11:09:39.929Z,53.31
2023-02-20T11:12:07.650Z,53.29
2023-02-20T11:14:41.781Z,53.03
2023-02-20T11:17:16.166Z,53.18
2023-02-20T11:19:48.504Z,53.34
2023-02-20T11:22:17.525Z,52.91
2023-02-20T11:24:46.212Z,52.49
2023-02-20T11:27:25.280Z,53.04
2023-02-20T11:30:01.142Z,52.82
2023-02-20T11:32:29.727Z,52.21
2023-02-20T11:35:17.840Z,52.17
2023-02-20T11:38:05.424Z,52.07
2023-02-20T11:40:33.057Z,51.04
2023-02-20T11:43:21.333Z,51.88
2023-02-20T11:45:48.263Z,52.36
2023-02-20T11:48:20.435Z,51.67
2023-02-20T11:50:48.586Z,51.18
2023-02-20T11:53:18.160Z,50.95
2023-02-20T11:55:55.000Z,50.45
2023-02-20T11:58:28.311Z,50.97
2023-02-20T12:00:55.548Z,49.77
2023-02-20T12:03:25.404Z,49.69
2023-02-20T12:05:52.530Z,49.21
2023-02-20T12:08:53.747Z,49.14
2023-02-20T12:11:21.816Z,49.78
2023-02-20T12:13:51.398Z,49.14
2023-02-20T12:16:18.039Z,49.46
2023-02-20T12:19:13.089Z,49.48
2023-02-20T12:21:54.850Z,49.88
2023-02-20T12:24:49.314Z,50.58
2023-02-20T12:27:47.993Z,49.33
2023-02-20T12:30:28.225Z,49.35
2023-02-20T12:33:36.887Z,49.36
2023-02-20T12:36:17.875Z,48.86
2023-02-20T12:38:59.601Z,50.02
2023-02-20T12:41:40.082Z,50.23
2023-02-20T12:44:13.835Z,49.71
2023-02-20T12:47:04.676Z,50.44
2023-02-20T12:49:52.685Z,49.93
2023-02-20T12:52:31.626Z,50.04
2023-02-20T12:55:14.573Z,49.97
2023-02-20T12:58:24.398Z,51.05
2023-02-20T13:00:54.172Z,51.40
2023-02-20T13:03:38.793Z,51.06
2023-02-20T13:06:06.626Z,51.32
2023-02-20T13:09:11.629Z,51.47
2023-02-20T13:11:42.986Z,51.93
2023-02-20T13:14:13.477Z,52.29
2023-02-20T13:17:18.552Z,52.08
2023-02-20T13:20:12.047Z,53.17
2023-02-20T13:22:38.650Z,52.91
2023-02-20T13:25:31.547Z,53.42
2023-02-20T13:28:22.502Z,53.94
2023-02-20T13:31:07.987Z,53.33
2023-02-20T13:33:38.360Z,53.44
2023-02-20T13:36:06.582Z,52.99
2023-02-20T13:38:33.351Z,53.16
2023-02-20T13:41:06.124Z,53.93
2023-02-20T13:43:34.769Z,53.84
2023-02-20T13:46:01.369Z,53.45
2023-02-20T13:48:30.630Z,53.69
2023-02-20T13:51:15.345Z,53.92
2023-02-20T13:53:51.658Z,53.92
2023-02-20T13:56:21.658Z,54.16
2023-02-20T13:58:50.075Z,53.31
2023-02-20T14:01:17.165Z,53.80
2023-02-20T14:03:44.041Z,54.33
2023-02-20T14:06:18.727Z,54.29
2023-02-20T14:08:47.725Z,53.43
2023-02-20T14:11:31.851Z,54.36
2023-02-20T14:13:59.577Z,53.86
2023-02-20T14:16:37.970Z,52.95
2023-02-20T14:19:23.997Z,54.47
2023-02-20T14:21:50.622Z,53.84
2023-02-20T14:24:19.382Z,53.95
2023-02-20T14:26:47.582Z,53.53
2023-02-20T14:29:30.510Z,54.17
2023-02-20T14:31:58.765Z,53.63
2023-02-20T14:35:00.897Z,53.59
2023-02-20T14:37:34.684Z,54.38
2023-02-20T14:40:46.222Z,53.78
2023-02-20T14:43:19.803Z,54.70
2023-02-20T14:45:57.891Z,54.45
2023-02-20T14:48:29.622Z,54.51
2023-02-20T14:51:09.721Z,54.10
2023-02-20T14:53:37.356Z,54.63
2023-02-20T14:56:13.345Z,54.83
2023-02-20T14:58:43.326Z,54.51
2023-02-20T15:01:35.469Z,55.30
2023-02-20T15:04:12.367Z,55.43
2023-02-20T15:06:41.719Z,55.68
2023-02-20T15:09:21.505Z,56.11
2023-02-20T15:12:09.259Z,56.48
2023-02-20T15:14:42.252Z,56.22
2023-02-20T15:17:24.198Z,56.33
2023-02-20T15:19:52.285Z,56.14
2023-02-20T15:22:37.459Z,56.52
2023-02-20T15:25:24.432Z,56.55
2023-02-20T15:28:18.100Z,56.58
2023-02-20T15:31:29.602Z,56.95
2023-02-20T15:33:57.665Z,57.31
2023-02-20T15:36:28.885Z,57.67
2023-02-20T15:38:57.060Z,56.91
2023-02-20T15:41:24.568Z,57.13
2023-02-20T15:43:51.865Z,57.82
2023-02-20T15:46:21.382Z,57.71
2023-02-20T15:48:47.852Z,58.05
2023-02-20T15:51:21.702Z,57.32
2023-02-20T15:53:48.646Z,57.65
2023-02-20T15:56:16.267Z,57.81
2023-02-20T15:58:45.739Z,57.92
2023-02-20T16:01:12.450Z,58.46
2023-02-20T16:03:51.258Z,57.59
2023-02-20T16:06:21.500Z,58.43
2023-02-20T16:08:51.849Z,58.51
2023-02-20T16:11:22.330Z,58.26
2023-02-20T16:13:54.945Z,58.89
2023-02-20T16:16:31.468Z,58.59
2023-02-20T16:18:58.709Z,59.21
2023-02-20T16:21:26.631Z,59.31
2023-02-20T16:23:54.095Z,59.23
2023-02-20T16:26:25.703Z,59.13
2023-02-20T16:28:57.898Z,59.44
2023-02-20T16:31:53.805Z,60.03
2023-02-20T16:34:22.436Z,60.14
2023-02-20T16:36:49.364Z,60.09
2023-02-20T16:39:25.746Z,60.43
2023-02-20T16:41:53.741Z,60.32
2023-02-20T16:44:24.941Z,60.83
2023-02-20T16:46:51.590Z,61.13
2023-02-20T16:49:18.171Z,60.76
2023-02-20T16:51:59.130Z,61.17
2023-02-20T16:54:25.753Z,60.94
2023-02-20T16:56:52.296Z,61.06
2023-02-20T16:59:19.822Z,61.58
2023-02-20T17:01:46.516Z,61.46
2023-02-20T17:04:14.508Z,61.42
2023-02-20T17:06:41.368Z,61.67
2023-02-20T17:09:07.934Z,61.24
2023-02-20T17:11:34.472Z,61.34
2023-02-20T17:14:01.004Z,61.64
2023-02-20T17:16:31.863Z,61.94
2023-02-20T17:18:58.763Z,62.25
2023-02-20T17:21:25.277Z,61.80
2023-02-20T17:23:51.816Z,61.69
2023-02-20T17:26:18.391Z,61.76
2023-02-20T17:28:44.939Z,61.33
2023-02-20T17:31:11.773Z,61.41
2023-02-20T17:33:40.803Z,61.40
2023-02-20T17:36:07.824Z,61.13
2023-02-20T17:38:34.418Z,61.54
2023-02-20T17:41:01.152Z,61.29
2023-02-20T17:43:27.879Z,60.92
2023-02-20T17:45:54.473Z,61.31
2023-02-20T17:48:21.056Z,61.67
2023-02-20T17:50:47.716Z,61.42
2023-02-20T17:53:15.041Z,61.59
2023-02-20T17:55:41.760Z,61.70
2023-02-20T17:58:08.439Z,61.58
2023-02-20T18:00:35.023Z,62.35
2023-02-20T18:03:01.710Z,62.18
2023-02-20T18:05:28.277Z,64.39
2023-02-20T18:07:54.969Z,66.21
2023-02-20T18:10:21.557Z,67.27
2023-02-20T18:13:02.694Z,68.26
2023-02-20T18:15:34.424Z,68.84
2023-02-20T18:18:01.922Z,69.41
2023-02-20T18:20:29.254Z,70.12
2023-02-20T18:22:56.976Z,71.61
2023-02-20T18:25:39.126Z,71.77
2023-02-20T18:28:07.846Z,72.26
2023-02-20T18:30:34.762Z,72.09
2023-02-20T18:33:01.645Z,72.13
2023-02-20T18:35:28.247Z,72.51
2023-02-20T18:37:54.951Z,72.70
2023-02-20T18:40:23.652Z,73.37
2023-02-20T18:42:51.473Z,73.38
2023-02-20T18:45:18.559Z,72.47
2023-02-20T18:47:50.236Z,72.59
2023-02-20T18:50:17.695Z,72.72
2023-02-20T18:52:48.354Z,71.74
2023-02-20T18:55:17.693Z,71.70
2023-02-20T18:57:47.904Z,71.63
2023-02-20T19:00:23.255Z,70.29
2023-02-20T19:02:52.221Z,70.50
2023-02-20T19:05:18.849Z,70.57
2023-02-20T19:07:47.441Z,69.43
2023-02-20T19:10:19.073Z,69.10
2023-02-20T19:12:45.688Z,68.71
2023-02-20T19:15:12.220Z,67.79
2023-02-20T19:17:38.861Z,67.96
2023-02-20T19:20:08.924Z,68.36
2023-02-20T19:22:35.607Z,67.39
2023-02-20T19:25:05.409Z,68.19
2023-02-20T19:27:32.011Z,68.52
2023-02-20T19:29:58.547Z,68.70
2023-02-20T19:32:25.248Z,68.50
2023-02-20T19:34:51.927Z,68.58
2023-02-20T19:37:18.824Z,69.65
2023-02-20T19:39:45.478Z,69.87
2023-02-20T19:42:12.551Z,70.23
2023-02-20T19:44:39.548Z,70.41
2023-02-20T19:47:06.295Z,70.94
2023-02-20T19:49:33.736Z,70.40
2023-02-20T19:52:01.374Z,71.55
2023-02-20T19:54:29.950Z,71.28
2023-02-20T19:57:00.954Z,70.91
2023-02-20T19:59:29.348Z,71.51
2023-02-20T20:02:00.643Z,72.03
2023-02-20T20:04:29.220Z,70.94
2023-02-20T20:06:56.273Z,70.58
2023-02-20T20:09:35.730Z,71.12
2023-02-20T20:12:05.053Z,70.71
2023-02-20T20:14:31.745Z,70.10
2023-02-20T20:16:58.398Z,69.93
2023-02-20T20:19:25.365Z,69.21
2023-02-20T20:21:51.946Z,69.71
2023-02-20T20:24:18.993Z,69.56
2023-02-20T20:26:45.600Z,70.03
2023-02-20T20:29:12.164Z,69.46
2023-02-20T20:31:41.552Z,70.21
2023-02-20T20:34:09.308Z,70.68
2023-02-20T20:36:36.060Z,70.61
2023-02-20T20:39:03.935Z,70.29
2023-02-20T20:41:44.108Z,70.86
2023-02-20T20:44:12.182Z,71.43
2023-02-20T20:46:38.905Z,71.84
2023-02-20T20:49:05.474Z,71.51
2023-02-20T20:51:32.028Z,71.98
2023-02-20T20:53:58.583Z,71.96
2023-02-20T20:56:25.138Z,71.88
2023-02-20T20:58:51.726Z,71.83
2023-02-20T21:01:18.754Z,72.02
2023-02-20T21:03:45.437Z,72.00
2023-02-20T21:06:12.859Z,73.11
2023-02-20T21:08:39.456Z,72.58
2023-02-20T21:11:06.223Z,72.73
2023-02-20T21:13:32.921Z,72.55
2023-02-20T21:15:59.533Z,73.38
2023-02-20T21:18:26.110Z,72.64
2023-02-20T21:20:52.624Z,73.39
2023-02-20T21:23:19.127Z,72.78
2023-02-20T21:25:45.716Z,73.02
2023-02-20T21:28:12.258Z,72.93
2023-02-20T21:30:38.862Z,72.08
2023-02-20T21:33:06.353Z,72.13
2023-02-20T21:35:32.880Z,71.93
2023-02-20T21:37:59.385Z,71.54
2023-02-20T21:40:25.954Z,71.00
2023-02-20T21:43:11.058Z,70.87
2023-02-20T21:45:37.595Z,70.89
2023-02-20T21:48:05.322Z,69.73
2023-02-20T21:50:32.094Z,70.22
2023-02-20T21:52:58.984Z,69.77
2023-02-20T21:55:25.643Z,69.76
2023-02-20T21:57:52.489Z,69.72
2023-02-20T22:00:19.036Z,69.65
2023-02-20T22:02:45.536Z,69.23
2023-02-20T22:05:12.121Z,69.51
2023-02-20T22:07:57.415Z,69.70
2023-02-20T22:10:43.298Z,69.87
2023-02-20T22:13:28.754Z,69.26
2023-02-20T22:16:14.154Z,69.14
2023-02-20T22:18:59.304Z,69.47
2023-02-20T22:21:44.692Z,70.04
2023-02-20T22:24:38.223Z,69.89
2023-02-20T22:27:26.277Z,69.98
2023-02-20T22:30:11.756Z,69.85
2023-02-20T22:32:57.505Z,70.07
2023-02-20T22:35:42.585Z,70.20
2023-02-20T22:38:28.030Z,70.44
2023-02-20T22:41:13.601Z,69.82
2023-02-20T22:43:58.877Z,69.37
2023-02-20T22:46:44.135Z,69.80
2023-02-20T22:49:29.366Z,69.25
2023-02-20T22:52:14.768Z,69.09
2023-02-20T22:55:06.679Z,68.91
2023-02-20T22:57:52.799Z,69.29
2023-02-20T23:00:38.150Z,68.89
2023-02-20T23:03:23.859Z,69.04
2023-02-20T23:06:17.561Z,68.18
2023-02-20T23:09:03.535Z,68.29
2023-02-20T23:11:52.242Z,68.75
2023-02-20T23:14:37.519Z,68.35
2023-02-20T23:17:35.056Z,68.58
2023-02-20T23:20:24.673Z,68.75
2023-02-20T23:23:10.592Z,68.41
2023-02-20T23:25:55.961Z,68.45
2023-02-20T23:28:41.288Z,68.58
2023-02-20T23:31:26.555Z,68.99
2023-02-20T23:34:11.761Z,69.36
2023-02-20T23:36:57.006Z,69.24
2023-02-20T23:39:42.488Z,69.05
2023-02-20T23:42:27.145Z,69.37
2023-02-20T23:45:12.549Z,69.26
2023-02-20T23:47:59.439Z,69.28
2023-02-20T23:50:44.769Z,68.76
2023-02-20T23:53:29.640Z,68.70
2023-02-20T23:56:14.395Z,69.07
2023-02-20T23:58:59.244Z,69.02
